Time;durP1;ratioP1;P1;durP2;ratioP2;P2;SDS_P1;SDS_P2;PMS_P1;PMS_P2;Temp;Humidity;BMP_temperature;BMP_pressure;BME280_temperature;BME280_humidity;BME280_pressure;Samples;Min_cycle;Max_cycle;Signal;HPM_P1;HPM_P2
2023/11/12 00:00:12;;;;;;;;;;;17.70;65.10;;;;;;5044566;28;19909;-64
2023/11/12 00:02:38;;;;;;;;;;;17.70;65.10;;;;;;5052512;28;20207;-65
2023/11/12 00:05:03;;;;;;;;;;;17.70;65.10;;;;;;5048605;28;20007;-64
2023/11/12 00:07:29;;;;;;;;;;;17.70;65.10;;;;;;5049100;28;19916;-64
2023/11/12 00:09:54;;;;;;;;;;;17.70;65.10;;;;;;5048888;28;19920;-63
2023/11/12 00:12:22;;;;;;;;;;;17.60;65.00;;;;;;5053713;28;20457;-64
2023/11/12 00:14:48;;;;;;;;;;;17.60;65.00;;;;;;5048961;28;19916;-64
2023/11/12 00:17:13;;;;;;;;;;;17.60;65.00;;;;;;5040758;28;20386;-64
2023/11/12 00:19:39;;;;;;;;;;;17.70;65.10;;;;;;5043814;28;19919;-64
2023/11/12 00:22:05;;;;;;;;;;;17.70;65.10;;;;;;5043284;28;19913;-64
2023/11/12 00:24:31;;;;;;;;;;;17.70;65.10;;;;;;5042320;28;19913;-65
2023/11/12 00:26:56;;;;;;;;;;;17.60;65.10;;;;;;5040856;28;19913;-65
2023/11/12 00:29:22;;;;;;;;;;;17.70;65.10;;;;;;5044600;28;20191;-65
2023/11/12 00:31:47;;;;;;;;;;;17.60;65.10;;;;;;5041413;28;19923;-64
2023/11/12 00:34:13;;;;;;;;;;;17.60;65.10;;;;;;5037625;28;20298;-64
2023/11/12 00:36:42;;;;;;;;;;;17.60;65.10;;;;;;5043069;28;20408;-64
2023/11/12 00:39:09;;;;;;;;;;;17.60;65.10;;;;;;5046862;28;19912;-64
2023/11/12 00:41:37;;;;;;;;;;;17.60;65.10;;;;;;5043856;28;20405;-65
2023/11/12 00:44:03;;;;;;;;;;;17.60;65.10;;;;;;5041930;28;19921;-63
2023/11/12 00:46:28;;;;;;;;;;;17.60;65.00;;;;;;5054019;28;19912;-63
2023/11/12 00:48:55;;;;;;;;;;;17.60;65.10;;;;;;5048618;28;19919;-64
2023/11/12 00:51:20;;;;;;;;;;;17.60;65.10;;;;;;5052126;28;19927;-64
2023/11/12 00:53:46;;;;;;;;;;;17.60;65.10;;;;;;5048386;28;19913;-64
2023/11/12 00:56:11;;;;;;;;;;;17.60;65.10;;;;;;5047064;28;19919;-65
2023/11/12 00:58:37;;;;;;;;;;;17.60;65.10;;;;;;5054249;28;19999;-65
2023/11/12 01:01:02;;;;;;;;;;;17.60;65.10;;;;;;5049801;28;19909;-62
2023/11/12 01:03:32;;;;;;;;;;;17.60;65.10;;;;;;5050424;28;19912;-63
2023/11/12 01:05:58;;;;;;;;;;;17.60;65.10;;;;;;5042457;28;19912;-64
2023/11/12 01:08:23;;;;;;;;;;;17.60;65.20;;;;;;5051938;28;19936;-65
2023/11/12 01:10:49;;;;;;;;;;;17.60;65.20;;;;;;5048686;28;19916;-64
2023/11/12 01:13:15;;;;;;;;;;;17.50;65.10;;;;;;5054516;28;19908;-65
2023/11/12 01:15:43;;;;;;;;;;;17.60;65.10;;;;;;5049182;28;19991;-65
2023/11/12 01:18:08;;;;;;;;;;;17.50;65.20;;;;;;5041153;28;20141;-64
2023/11/12 01:20:34;;;;;;;;;;;17.60;65.20;;;;;;5040954;28;19910;-64
2023/11/12 01:22:59;;;;;;;;;;;17.50;65.10;;;;;;5045564;28;19913;-64
2023/11/12 01:25:25;;;;;;;;;;;17.50;65.10;;;;;;5045139;28;19908;-64
2023/11/12 01:27:50;;;;;;;;;;;17.50;65.10;;;;;;5045582;28;19962;-64
2023/11/12 01:30:17;;;;;;;;;;;17.50;65.10;;;;;;5042903;28;19962;-61
2023/11/12 01:32:42;;;;;;;;;;;17.50;65.10;;;;;;5042174;28;19909;-65
2023/11/12 01:35:08;;;;;;;;;;;17.50;65.20;;;;;;5041470;28;19909;-65
2023/11/12 01:37:33;;;;;;;;;;;17.50;65.10;;;;;;5044710;28;19916;-65
2023/11/12 01:39:58;;;;;;;;;;;17.50;65.10;;;;;;5042994;28;19909;-66
2023/11/12 01:42:25;;;;;;;;;;;17.50;65.10;;;;;;5044051;28;20024;-66
2023/11/12 01:44:50;;;;;;;;;;;17.50;65.10;;;;;;5046177;28;20015;-65
2023/11/12 01:47:17;;;;;;;;;;;17.40;65.10;;;;;;5043374;28;20050;-65
2023/11/12 01:49:42;;;;;;;;;;;17.50;65.10;;;;;;5050623;28;19913;-66
2023/11/12 01:52:08;;;;;;;;;;;17.50;65.10;;;;;;5046926;28;19909;-65
2023/11/12 01:54:35;;;;;;;;;;;17.40;65.10;;;;;;5047315;28;20294;-65
2023/11/12 01:57:01;;;;;;;;;;;17.50;65.10;;;;;;5051541;28;20269;-64
2023/11/12 01:59:30;;;;;;;;;;;17.50;65.10;;;;;;5037885;28;20359;-65
2023/11/12 02:01:56;;;;;;;;;;;17.50;65.10;;;;;;5039042;28;20287;-65
2023/11/12 02:04:22;;;;;;;;;;;17.50;65.10;;;;;;5042521;28;20391;-63
2023/11/12 02:06:48;;;;;;;;;;;17.50;65.10;;;;;;5041468;28;19909;-66
2023/11/12 02:09:13;;;;;;;;;;;17.50;65.10;;;;;;5037489;28;20386;-65
2023/11/12 02:11:39;;;;;;;;;;;17.40;65.10;;;;;;5038065;28;20307;-65
2023/11/12 02:14:06;;;;;;;;;;;17.50;65.10;;;;;;5037821;28;19909;-64
2023/11/12 02:16:31;;;;;;;;;;;17.40;65.00;;;;;;5046500;28;19909;-65
2023/11/12 02:18:57;;;;;;;;;;;17.50;65.10;;;;;;5043778;28;19913;-64
2023/11/12 02:21:24;;;;;;;;;;;17.40;65.10;;;;;;5044262;28;19936;-65
2023/11/12 02:23:49;;;;;;;;;;;17.40;65.00;;;;;;5040338;28;20241;-65
2023/11/12 02:26:15;;;;;;;;;;;17.40;65.00;;;;;;5042023;28;19978;-64
2023/11/12 02:28:40;;;;;;;;;;;17.40;65.10;;;;;;5047430;28;19909;-65
2023/11/12 02:31:06;;;;;;;;;;;17.70;64.90;;;;;;5041276;28;19915;-63
2023/11/12 02:33:32;;;;;;;;;;;18.30;63.80;;;;;;5041750;28;20023;-64
2023/11/12 02:35:57;;;;;;;;;;;19.30;61.30;;;;;;5039990;28;19992;-64
2023/11/12 02:38:23;;;;;;;;;;;20.20;58.90;;;;;;5044703;28;19932;-64
2023/11/12 02:40:49;;;;;;;;;;;21.00;57.10;;;;;;5043032;28;19924;-61
2023/11/12 02:43:16;;;;;;;;;;;21.70;55.50;;;;;;5036703;28;19982;-63
2023/11/12 02:45:41;;;;;;;;;;;22.30;54.20;;;;;;5035434;28;20003;-65
2023/11/12 02:48:07;;;;;;;;;;;22.80;53.00;;;;;;5057222;28;20012;-65
2023/11/12 02:50:33;;;;;;;;;;;23.00;52.60;;;;;;5046090;28;19958;-65
2023/11/12 02:53:00;;;;;;;;;;;23.10;52.30;;;;;;5044671;28;19924;-65
2023/11/12 02:55:30;;;;;;;;;;;23.30;52.10;;;;;;5045845;28;19916;-65
2023/11/12 02:57:55;;;;;;;;;;;23.70;51.40;;;;;;5046277;28;19912;-65
2023/11/12 03:00:21;;;;;;;;;;;24.00;50.90;;;;;;5047054;28;20363;-64
2023/11/12 03:02:47;;;;;;;;;;;24.10;50.60;;;;;;5045602;28;19915;-65
2023/11/12 03:05:14;;;;;;;;;;;24.20;50.60;;;;;;5048005;28;19934;-65
2023/11/12 03:07:40;;;;;;;;;;;24.10;50.70;;;;;;5044777;28;19952;-65
2023/11/12 03:10:08;;;;;;;;;;;23.90;51.10;;;;;;5044497;28;19959;-61
2023/11/12 03:12:38;;;;;;;;;;;23.70;51.70;;;;;;5043250;28;19908;-65
2023/11/12 03:15:07;;;;;;;;;;;23.40;52.40;;;;;;5049892;28;20308;-64
2023/11/12 03:17:34;;;;;;;;;;;23.10;53.00;;;;;;5050977;28;19919;-64
2023/11/12 03:20:00;;;;;;;;;;;22.90;53.50;;;;;;5035375;28;19913;-65
2023/11/12 03:22:26;;;;;;;;;;;22.60;54.00;;;;;;5046952;28;19915;-64
2023/11/12 03:24:51;;;;;;;;;;;22.40;54.50;;;;;;5045123;28;19925;-64
2023/11/12 03:27:17;;;;;;;;;;;22.30;55.10;;;;;;5047586;28;19909;-64
2023/11/12 03:29:42;;;;;;;;;;;22.00;55.50;;;;;;5037313;28;20000;-64
2023/11/12 03:32:08;;;;;;;;;;;21.80;56.00;;;;;;5034149;28;19913;-64
2023/11/12 03:34:33;;;;;;;;;;;21.60;56.60;;;;;;5032305;28;20367;-64
2023/11/12 03:36:58;;;;;;;;;;;21.40;57.00;;;;;;5036031;28;20365;-65
2023/11/12 03:39:24;;;;;;;;;;;21.20;57.40;;;;;;5037279;28;20342;-64
2023/11/12 03:41:50;;;;;;;;;;;21.10;57.90;;;;;;5038181;28;20322;-64
2023/11/12 03:44:16;;;;;;;;;;;20.90;58.20;;;;;;5033344;28;19970;-64
2023/11/12 03:46:41;;;;;;;;;;;20.70;58.60;;;;;;5038918;28;20377;-63
2023/11/12 03:49:07;;;;;;;;;;;20.60;59.10;;;;;;5038745;28;19908;-63
2023/11/12 03:51:32;;;;;;;;;;;20.50;59.20;;;;;;5036534;28;20321;-64
2023/11/12 03:54:01;;;;;;;;;;;20.40;59.50;;;;;;5039998;28;19908;-64
2023/11/12 03:56:27;;;;;;;;;;;20.30;59.80;;;;;;5038944;28;19921;-60
2023/11/12 03:58:53;;;;;;;;;;;20.20;59.90;;;;;;5038370;28;19913;-64
2023/11/12 04:01:19;;;;;;;;;;;20.10;60.20;;;;;;5043518;28;20385;-64
2023/11/12 04:03:45;;;;;;;;;;;20.00;60.40;;;;;;5043999;28;20679;-63
2023/11/12 04:06:10;;;;;;;;;;;19.90;60.60;;;;;;5041734;28;20321;-63
2023/11/12 04:08:36;;;;;;;;;;;19.80;60.70;;;;;;5044410;28;19962;-64
2023/11/12 04:11:01;;;;;;;;;;;19.70;60.80;;;;;;5044689;28;19913;-64
2023/11/12 04:13:27;;;;;;;;;;;19.60;61.10;;;;;;5044021;28;20322;-63
2023/11/12 04:15:52;;;;;;;;;;;19.60;61.40;;;;;;5044712;28;19917;-64
2023/11/12 04:18:18;;;;;;;;;;;19.50;61.50;;;;;;5043911;28;19923;-64
2023/11/12 04:20:43;;;;;;;;;;;19.40;61.60;;;;;;5043359;28;19912;-64
2023/11/12 04:23:09;;;;;;;;;;;19.40;61.90;;;;;;5044558;28;19931;-63
2023/11/12 04:25:35;;;;;;;;;;;19.30;61.90;;;;;;5043830;28;19920;-64
2023/11/12 04:28:00;;;;;;;;;;;19.20;62.00;;;;;;5044031;28;19913;-63
2023/11/12 04:30:26;;;;;;;;;;;19.20;62.10;;;;;;5044764;28;19962;-64
2023/11/12 04:32:52;;;;;;;;;;;19.20;62.00;;;;;;5046228;28;19927;-64
2023/11/12 04:35:19;;;;;;;;;;;19.10;62.20;;;;;;5044502;28;20267;-64
2023/11/12 04:37:44;;;;;;;;;;;19.10;62.40;;;;;;5044649;28;19968;-64
2023/11/12 04:40:10;;;;;;;;;;;19.00;62.30;;;;;;5043577;28;19977;-63
2023/11/12 04:42:35;;;;;;;;;;;19.00;62.40;;;;;;5042581;28;20011;-64
2023/11/12 04:45:01;;;;;;;;;;;18.90;62.50;;;;;;5044490;28;20020;-63
2023/11/12 04:47:26;;;;;;;;;;;18.80;62.50;;;;;;5047102;28;19915;-64
2023/11/12 04:49:52;;;;;;;;;;;18.80;62.60;;;;;;5051515;28;20318;-64
2023/11/12 04:52:17;;;;;;;;;;;18.80;62.70;;;;;;5049247;28;19958;-64
2023/11/12 04:54:47;;;;;;;;;;;18.70;62.80;;;;;;5047659;28;19909;-65
2023/11/12 04:57:13;;;;;;;;;;;18.70;62.90;;;;;;5048477;28;20375;-62
2023/11/12 04:59:40;;;;;;;;;;;18.70;62.90;;;;;;5041326;28;19937;-63
2023/11/12 05:02:06;;;;;;;;;;;18.70;62.90;;;;;;5044469;28;20000;-63
2023/11/12 05:04:31;;;;;;;;;;;18.70;63.00;;;;;;5044573;28;19968;-65
2023/11/12 05:06:57;;;;;;;;;;;18.60;62.90;;;;;;5044688;28;19978;-64
2023/11/12 05:09:22;;;;;;;;;;;18.60;63.10;;;;;;5044815;28;20008;-64
2023/11/12 05:11:48;;;;;;;;;;;18.60;63.60;;;;;;5041894;28;20003;-62
2023/11/12 05:14:14;;;;;;;;;;;18.60;63.10;;;;;;5043082;28;20017;-64
2023/11/12 05:16:42;;;;;;;;;;;18.60;63.10;;;;;;5042405;28;19915;-65
2023/11/12 05:19:08;;;;;;;;;;;18.60;63.10;;;;;;5042992;28;19912;-64
2023/11/12 05:21:33;;;;;;;;;;;18.50;63.10;;;;;;5042775;28;19915;-64
2023/11/12 05:23:58;;;;;;;;;;;18.50;63.20;;;;;;5042419;28;20016;-63
2023/11/12 05:26:24;;;;;;;;;;;18.50;63.20;;;;;;5042427;28;19963;-64
2023/11/12 05:28:49;;;;;;;;;;;18.40;63.10;;;;;;5044564;28;20342;-64
2023/11/12 05:31:15;;;;;;;;;;;18.40;63.30;;;;;;5048192;28;21511;-64
2023/11/12 05:33:41;;;;;;;;;;;18.40;63.20;;;;;;5048829;28;19908;-64
2023/11/12 05:36:07;;;;;;;;;;;18.40;63.30;;;;;;5047498;28;19948;-65
2023/11/12 05:38:34;;;;;;;;;;;18.40;63.30;;;;;;5048423;28;19916;-64
2023/11/12 05:41:00;;;;;;;;;;;18.40;63.30;;;;;;5048890;28;19923;-64
2023/11/12 05:43:25;;;;;;;;;;;18.30;63.30;;;;;;5048650;28;19913;-64
2023/11/12 05:45:51;;;;;;;;;;;18.30;63.20;;;;;;5048395;28;19954;-64
2023/11/12 05:48:16;;;;;;;;;;;18.30;63.30;;;;;;5047870;28;19924;-64
2023/11/12 05:50:42;;;;;;;;;;;18.30;63.30;;;;;;5048022;28;19920;-64
2023/11/12 05:53:07;;;;;;;;;;;18.30;63.30;;;;;;5048083;28;20441;-64
2023/11/12 05:55:33;;;;;;;;;;;18.30;63.40;;;;;;5047539;28;19912;-63
2023/11/12 05:57:58;;;;;;;;;;;18.20;63.30;;;;;;5047269;28;19909;-64
2023/11/12 06:00:24;;;;;;;;;;;18.20;63.30;;;;;;5040071;28;20366;-64
2023/11/12 06:02:49;;;;;;;;;;;18.20;63.40;;;;;;5040835;28;19932;-64
2023/11/12 06:05:15;;;;;;;;;;;18.20;63.40;;;;;;5042600;28;19913;-64
2023/11/12 06:07:41;;;;;;;;;;;18.20;63.40;;;;;;5041371;28;19915;-63
2023/11/12 06:10:06;;;;;;;;;;;18.20;63.40;;;;;;5041080;28;19909;-64
2023/11/12 06:12:32;;;;;;;;;;;18.20;63.40;;;;;;5043968;28;19909;-64
2023/11/12 06:14:58;;;;;;;;;;;18.20;63.50;;;;;;5041540;28;19909;-65
2023/11/12 06:17:24;;;;;;;;;;;18.20;63.50;;;;;;5042399;28;20310;-63
2023/11/12 06:19:51;;;;;;;;;;;18.10;63.40;;;;;;5041855;28;19909;-64
2023/11/12 06:22:16;;;;;;;;;;;18.10;63.50;;;;;;5042787;28;20413;-64
2023/11/12 06:24:42;;;;;;;;;;;18.10;63.50;;;;;;5041089;28;19912;-64
2023/11/12 06:27:07;;;;;;;;;;;18.10;63.50;;;;;;5043630;28;19913;-64
2023/11/12 06:29:35;;;;;;;;;;;18.10;63.70;;;;;;5040387;28;19916;-64
2023/11/12 06:32:01;;;;;;;;;;;18.20;63.70;;;;;;5046292;28;19917;-64
2023/11/12 06:34:26;;;;;;;;;;;18.50;63.40;;;;;;5047048;28;19909;-64
2023/11/12 06:36:52;;;;;;;;;;;19.00;62.10;;;;;;5046088;28;20050;-64
2023/11/12 06:39:18;;;;;;;;;;;20.10;59.70;;;;;;5046767;28;19909;-64
2023/11/12 06:41:43;;;;;;;;;;;21.20;57.30;;;;;;5046847;28;20298;-63
2023/11/12 06:44:09;;;;;;;;;;;21.80;55.30;;;;;;5047126;28;19969;-64
2023/11/12 06:46:36;;;;;;;;;;;22.30;54.30;;;;;;5046864;28;19913;-64
2023/11/12 06:49:02;;;;;;;;;;;22.60;53.40;;;;;;5046486;28;20461;-64
2023/11/12 06:51:27;;;;;;;;;;;23.10;52.70;;;;;;5046875;28;19956;-65
2023/11/12 06:53:53;;;;;;;;;;;23.40;51.90;;;;;;5047267;28;19987;-65
2023/11/12 06:56:18;;;;;;;;;;;23.50;51.70;;;;;;5045484;28;20005;-63
2023/11/12 06:58:43;;;;;;;;;;;23.50;51.70;;;;;;5048182;28;19909;-60
2023/11/12 07:01:09;;;;;;;;;;;23.60;51.70;;;;;;5047535;28;19930;-64
2023/11/12 07:03:34;;;;;;;;;;;23.70;52.30;;;;;;5048694;28;19913;-63
2023/11/12 07:06:00;;;;;;;;;;;23.70;51.70;;;;;;5046355;28;19916;-64
2023/11/12 07:08:25;;;;;;;;;;;23.60;51.80;;;;;;5045351;28;19915;-68
2023/11/12 07:10:51;;;;;;;;;;;23.20;52.10;;;;;;5046141;28;19999;-64
2023/11/12 07:13:16;;;;;;;;;;;22.60;52.10;;;;;;5046437;28;19916;-63
2023/11/12 07:15:43;;;;;;;;;;;22.30;53.50;;;;;;5046910;28;19915;-64
2023/11/12 07:18:09;;;;;;;;;;;22.30;53.60;;;;;;5046980;28;19959;-64
2023/11/12 07:20:35;;;;;;;;;;;22.30;53.80;;;;;;5045742;28;19909;-64
2023/11/12 07:23:00;;;;;;;;;;;22.20;54.30;;;;;;5046507;28;20448;-64
2023/11/12 07:25:26;;;;;;;;;;;22.10;54.50;;;;;;5039857;28;20010;-64
2023/11/12 07:27:51;;;;;;;;;;;21.90;55.00;;;;;;5043365;28;19919;-64
2023/11/12 07:30:17;;;;;;;;;;;21.70;55.40;;;;;;5037355;28;20414;-63
2023/11/12 07:32:43;;;;;;;;;;;21.60;55.90;;;;;;5036265;28;19912;-64
2023/11/12 07:35:08;;;;;;;;;;;21.40;56.40;;;;;;5043668;28;19912;-64
2023/11/12 07:37:35;;;;;;;;;;;21.20;56.90;;;;;;5033547;28;20333;-63
2023/11/12 07:40:01;;;;;;;;;;;21.10;57.30;;;;;;5037975;28;19909;-64
2023/11/12 07:42:28;;;;;;;;;;;21.00;57.70;;;;;;5037944;28;19921;-64
2023/11/12 07:44:53;;;;;;;;;;;20.80;58.00;;;;;;5039656;28;19974;-64
2023/11/12 07:47:19;;;;;;;;;;;20.70;58.40;;;;;;5042509;28;19909;-63
2023/11/12 07:49:44;;;;;;;;;;;20.60;58.70;;;;;;5039316;28;19991;-64
2023/11/12 07:52:09;;;;;;;;;;;20.50;58.90;;;;;;5041206;28;20043;-64
2023/11/12 07:54:36;;;;;;;;;;;20.40;59.10;;;;;;5040704;28;19992;-63
2023/11/12 07:57:02;;;;;;;;;;;20.30;59.30;;;;;;5039613;28;20024;-64
2023/11/12 07:59:27;;;;;;;;;;;20.30;59.50;;;;;;5042338;28;20470;-65
2023/11/12 08:01:53;;;;;;;;;;;20.20;59.80;;;;;;5046405;28;20068;-64
2023/11/12 08:04:18;;;;;;;;;;;20.10;60.50;;;;;;5046896;28;20228;-64
2023/11/12 08:06:48;;;;;;;;;;;20.00;60.10;;;;;;5049866;28;19912;-64
2023/11/12 08:09:14;;;;;;;;;;;20.00;60.30;;;;;;5047345;28;19908;-62
2023/11/12 08:11:42;;;;;;;;;;;19.90;60.40;;;;;;5051523;28;19909;-65
2023/11/12 08:14:09;;;;;;;;;;;19.80;60.60;;;;;;5048589;28;19951;-64
2023/11/12 08:16:34;;;;;;;;;;;19.80;60.70;;;;;;5046272;28;19909;-64
2023/11/12 08:18:59;;;;;;;;;;;19.70;60.80;;;;;;5046633;28;19908;-64
2023/11/12 08:21:25;;;;;;;;;;;19.60;61.00;;;;;;5045762;28;20370;-65
2023/11/12 08:23:50;;;;;;;;;;;19.60;61.20;;;;;;5049530;28;20334;-65
2023/11/12 08:26:16;;;;;;;;;;;19.60;61.20;;;;;;5048592;28;20355;-63
2023/11/12 08:28:41;;;;;;;;;;;19.50;61.30;;;;;;5049746;28;19909;-61
2023/11/12 08:31:07;;;;;;;;;;;19.50;61.40;;;;;;5057121;28;20264;-64
2023/11/12 08:33:33;;;;;;;;;;;19.40;61.40;;;;;;5043673;28;20309;-64
2023/11/12 08:35:59;;;;;;;;;;;19.40;61.50;;;;;;5042532;28;20030;-62
2023/11/12 08:38:24;;;;;;;;;;;19.30;61.50;;;;;;5043087;28;19921;-64
2023/11/12 08:40:50;;;;;;;;;;;19.30;61.60;;;;;;5042793;28;19927;-63
2023/11/12 08:43:15;;;;;;;;;;;19.20;61.70;;;;;;5041496;28;19939;-63
2023/11/12 08:45:41;;;;;;;;;;;19.20;61.80;;;;;;5042939;28;19916;-64
2023/11/12 08:48:06;;;;;;;;;;;19.10;61.80;;;;;;5039335;28;19988;-63
2023/11/12 08:50:32;;;;;;;;;;;19.10;61.80;;;;;;5045385;28;19920;-64
2023/11/12 08:52:59;;;;;;;;;;;19.10;61.90;;;;;;5047086;28;20184;-65
2023/11/12 08:55:25;;;;;;;;;;;19.10;62.00;;;;;;5047189;28;19916;-63
2023/11/12 08:57:51;;;;;;;;;;;19.00;61.90;;;;;;5046308;28;19913;-64
2023/11/12 09:00:18;;;;;;;;;;;19.10;62.00;;;;;;5045040;28;20347;-63
2023/11/12 09:02:44;;;;;;;;;;;19.10;62.10;;;;;;5047866;28;19920;-63
2023/11/12 09:05:10;;;;;;;;;;;19.10;62.10;;;;;;5048098;28;19947;-64
2023/11/12 09:07:36;;;;;;;;;;;19.00;62.00;;;;;;5047839;28;19951;-64
2023/11/12 09:10:04;;;;;;;;;;;19.00;61.90;;;;;;5048546;28;20524;-63
2023/11/12 09:12:30;;;;;;;;;;;19.00;61.90;;;;;;5044802;28;19909;-63
2023/11/12 09:14:57;;;;;;;;;;;19.00;61.90;;;;;;5045782;28;19920;-64
2023/11/12 09:17:22;;;;;;;;;;;18.90;62.00;;;;;;5041064;28;19920;-63
2023/11/12 09:19:48;;;;;;;;;;;18.90;62.10;;;;;;5044652;28;19974;-64
2023/11/12 09:22:13;;;;;;;;;;;18.90;62.20;;;;;;5044367;28;19936;-64
2023/11/12 09:24:46;;;;;;;;;;;18.90;62.20;;;;;;5046261;28;19916;-64
2023/11/12 09:27:11;;;;;;;;;;;18.80;62.00;;;;;;5045625;28;20286;-64
2023/11/12 09:29:37;;;;;;;;;;;18.90;61.80;;;;;;5046376;28;19995;-64
2023/11/12 09:32:03;;;;;;;;;;;18.80;61.70;;;;;;5042161;28;19921;-63
2023/11/12 09:34:29;;;;;;;;;;;18.80;61.50;;;;;;5044673;28;19908;-64
2023/11/12 09:36:55;;;;;;;;;;;18.80;61.40;;;;;;5045520;28;20098;-64
2023/11/12 09:39:23;;;;;;;;;;;18.80;61.40;;;;;;5043486;28;19927;-64
2023/11/12 09:41:51;;;;;;;;;;;18.70;61.40;;;;;;5042179;28;19925;-64
2023/11/12 09:44:17;;;;;;;;;;;18.80;61.20;;;;;;5039662;28;20342;-64
2023/11/12 09:46:44;;;;;;;;;;;18.70;61.00;;;;;;5036589;28;20192;-64
2023/11/12 09:49:10;;;;;;;;;;;18.70;61.10;;;;;;5046762;28;19909;-63
2023/11/12 09:51:39;;;;;;;;;;;18.70;61.00;;;;;;5047359;28;20410;-63
2023/11/12 09:54:05;;;;;;;;;;;18.70;61.00;;;;;;5047290;28;19909;-64
2023/11/12 09:56:30;;;;;;;;;;;18.70;61.00;;;;;;5046098;28;19913;-64
2023/11/12 09:58:56;;;;;;;;;;;18.70;60.80;;;;;;5049381;28;20016;-64
2023/11/12 10:01:22;;;;;;;;;;;18.60;60.80;;;;;;5046760;28;20007;-64
2023/11/12 10:03:48;;;;;;;;;;;18.60;60.70;;;;;;5047153;28;19917;-63
2023/11/12 10:06:14;;;;;;;;;;;18.60;60.70;;;;;;5049140;28;19922;-64
2023/11/12 10:08:39;;;;;;;;;;;18.60;60.60;;;;;;5047091;28;20027;-64
2023/11/12 10:11:18;;;;;;;;;;;18.60;60.40;;;;;;5046861;28;20003;-64
2023/11/12 10:13:44;;;;;;;;;;;18.60;60.40;;;;;;5048545;28;19908;-64
2023/11/12 10:16:23;;;;;;;;;;;18.60;60.50;;;;;;5047850;28;19920;-64
2023/11/12 10:18:50;;;;;;;;;;;18.60;60.30;;;;;;5046435;28;19908;-64
2023/11/12 10:21:15;;;;;;;;;;;18.60;60.20;;;;;;5048764;28;20379;-64
2023/11/12 10:23:41;;;;;;;;;;;18.60;60.50;;;;;;5047083;28;19920;-63
2023/11/12 10:26:11;;;;;;;;;;;18.50;61.00;;;;;;5046351;28;19985;-64
2023/11/12 10:28:37;;;;;;;;;;;18.50;61.10;;;;;;5045899;28;20410;-63
2023/11/12 10:31:03;;;;;;;;;;;18.50;61.20;;;;;;5048461;28;20003;-63
2023/11/12 10:33:29;;;;;;;;;;;18.50;61.40;;;;;;5047493;28;19919;-64
2023/11/12 10:35:58;;;;;;;;;;;18.40;61.70;;;;;;5050076;28;20294;-64
2023/11/12 10:38:23;;;;;;;;;;;18.40;61.60;;;;;;5047319;28;19944;-63
2023/11/12 10:40:56;;;;;;;;;;;18.40;61.80;;;;;;5046775;28;19956;-63
2023/11/12 10:43:21;;;;;;;;;;;18.40;61.80;;;;;;5049890;28;19909;-64
2023/11/12 10:45:48;;;;;;;;;;;18.40;61.80;;;;;;5047950;28;20295;-63
2023/11/12 10:48:15;;;;;;;;;;;18.40;61.80;;;;;;5042377;28;20312;-64
2023/11/12 10:50:43;;;;;;;;;;;18.30;61.80;;;;;;5040483;28;20055;-64
2023/11/12 10:53:09;;;;;;;;;;;18.30;61.90;;;;;;5037561;28;19924;-64
2023/11/12 10:55:35;;;;;;;;;;;18.30;62.00;;;;;;5041541;28;19927;-64
2023/11/12 10:58:01;;;;;;;;;;;18.30;62.10;;;;;;5042636;28;19986;-64
2023/11/12 11:00:27;;;;;;;;;;;18.30;62.10;;;;;;5043663;28;19959;-64
2023/11/12 11:02:52;;;;;;;;;;;18.30;62.10;;;;;;5041006;28;20403;-63
2023/11/12 11:05:18;;;;;;;;;;;18.30;62.20;;;;;;5039693;28;20370;-62
2023/11/12 11:07:46;;;;;;;;;;;18.30;62.10;;;;;;5040540;28;19912;-63
2023/11/12 11:10:11;;;;;;;;;;;18.20;62.20;;;;;;5043370;28;19913;-63
2023/11/12 11:12:37;;;;;;;;;;;18.20;62.10;;;;;;5037585;28;19924;-64
2023/11/12 11:15:21;;;;;;;;;;;18.20;62.10;;;;;;5040138;28;19916;-64
2023/11/12 11:17:47;;;;;;;;;;;18.20;62.20;;;;;;5042639;28;19917;-64
2023/11/12 11:20:12;;;;;;;;;;;18.20;62.10;;;;;;5047168;28;19913;-63
2023/11/12 11:22:38;;;;;;;;;;;18.20;62.20;;;;;;5047619;28;20300;-64
2023/11/12 11:25:24;;;;;;;;;;;18.20;62.20;;;;;;5048601;28;20013;-64
2023/11/12 11:28:10;;;;;;;;;;;18.20;62.20;;;;;;5042876;28;20285;-64
2023/11/12 11:30:35;;;;;;;;;;;18.20;62.30;;;;;;5047275;28;20394;-63
2023/11/12 11:33:02;;;;;;;;;;;18.20;62.40;;;;;;5046296;28;19912;-64
2023/11/12 11:35:29;;;;;;;;;;;18.20;62.30;;;;;;5044788;28;20385;-63
2023/11/12 11:38:11;;;;;;;;;;;18.20;62.30;;;;;;5046627;28;20054;-65
2023/11/12 11:40:37;;;;;;;;;;;18.10;62.30;;;;;;5046812;28;20367;-63
2023/11/12 11:43:25;;;;;;;;;;;18.10;62.30;;;;;;5045708;28;20035;-64
2023/11/12 11:46:07;;;;;;;;;;;18.10;62.30;;;;;;5032372;28;20341;-63
2023/11/12 11:48:32;;;;;;;;;;;18.10;62.30;;;;;;5048060;28;19927;-63
2023/11/12 11:50:58;;;;;;;;;;;18.10;62.40;;;;;;5039049;28;20172;-63
2023/11/12 11:53:24;;;;;;;;;;;18.10;62.50;;;;;;5050098;28;19996;-63
2023/11/12 11:55:55;;;;;;;;;;;18.10;62.40;;;;;;5038124;28;20425;-64
2023/11/12 11:58:21;;;;;;;;;;;18.10;62.50;;;;;;5040205;28;19913;-64
2023/11/12 12:00:57;;;;;;;;;;;18.10;62.40;;;;;;5039714;28;20003;-63
2023/11/12 12:03:25;;;;;;;;;;;18.10;62.40;;;;;;5044811;28;20299;-64
2023/11/12 12:05:52;;;;;;;;;;;18.10;62.50;;;;;;5047189;28;20378;-64
2023/11/12 12:08:18;;;;;;;;;;;18.10;62.40;;;;;;5045338;28;19932;-62
2023/11/12 12:10:45;;;;;;;;;;;18.10;62.50;;;;;;5044813;28;20374;-63
2023/11/12 12:13:11;;;;;;;;;;;18.10;62.40;;;;;;5043192;28;19909;-63
2023/11/12 12:15:37;;;;;;;;;;;18.10;62.50;;;;;;5039311;28;19916;-63
2023/11/12 12:18:23;;;;;;;;;;;18.10;62.50;;;;;;5041401;28;20042;-63
2023/11/12 12:20:51;;;;;;;;;;;18.10;62.50;;;;;;5049275;28;19912;-63
2023/11/12 12:23:16;;;;;;;;;;;18.00;62.50;;;;;;5049815;28;20350;-62
2023/11/12 12:25:51;;;;;;;;;;;18.00;62.50;;;;;;5049543;28;20016;-63
2023/11/12 12:28:20;;;;;;;;;;;18.00;62.50;;;;;;5048698;28;19908;-63
2023/11/12 12:30:51;;;;;;;;;;;18.00;62.50;;;;;;5049336;28;19987;-64
2023/11/12 12:33:17;;;;;;;;;;;18.00;62.50;;;;;;5048694;28;19915;-63
2023/11/12 12:35:43;;;;;;;;;;;18.00;62.60;;;;;;5049024;28;20346;-63
2023/11/12 12:38:09;;;;;;;;;;;18.00;62.70;;;;;;5048916;28;20276;-62
2023/11/12 12:40:34;;;;;;;;;;;18.00;62.70;;;;;;5053148;28;19932;-63
2023/11/12 12:46:03;;;;;;;;;;;18.00;62.80;;;;;;5021415;28;20735;-63
2023/11/12 12:48:29;;;;;;;;;;;18.00;62.90;;;;;;5057640;28;19917;-63
2023/11/12 12:50:58;;;;;;;;;;;18.00;63.00;;;;;;5047658;28;19948;-63
2023/11/12 12:53:25;;;;;;;;;;;18.00;63.10;;;;;;5047927;28;19916;-63
2023/11/12 12:55:52;;;;;;;;;;;18.00;63.20;;;;;;5047165;28;19919;-63
2023/11/12 12:58:19;;;;;;;;;;;17.90;63.30;;;;;;5048492;28;19915;-63
2023/11/12 13:00:44;;;;;;;;;;;17.90;63.60;;;;;;5047571;28;19916;-63
2023/11/12 13:03:30;;;;;;;;;;;17.90;63.50;;;;;;5048779;28;20366;-64
2023/11/12 13:05:57;;;;;;;;;;;17.90;63.50;;;;;;5043157;28;19927;-64
2023/11/12 13:08:23;;;;;;;;;;;17.90;63.50;;;;;;5047406;28;20453;-65
2023/11/12 13:10:49;;;;;;;;;;;17.90;63.50;;;;;;5048438;28;20004;-63
2023/11/12 13:13:17;;;;;;;;;;;17.90;63.60;;;;;;5047933;28;19908;-64
2023/11/12 13:15:46;;;;;;;;;;;17.90;63.50;;;;;;5045658;28;19912;-63
2023/11/12 13:18:12;;;;;;;;;;;17.90;63.60;;;;;;5041986;28;20614;-63
2023/11/12 13:20:38;;;;;;;;;;;17.90;63.60;;;;;;5040895;28;20355;-63
2023/11/12 13:23:04;;;;;;;;;;;17.80;63.50;;;;;;5041724;28;19974;-65
2023/11/12 13:25:29;;;;;;;;;;;17.90;63.50;;;;;;5044739;28;19951;-65
2023/11/12 13:27:55;;;;;;;;;;;17.90;63.60;;;;;;5040198;28;19913;-63
2023/11/12 13:30:21;;;;;;;;;;;17.80;63.60;;;;;;5041568;28;20369;-60
2023/11/12 13:32:49;;;;;;;;;;;17.80;63.60;;;;;;5039857;28;19960;-63
2023/11/12 13:35:16;;;;;;;;;;;17.80;63.60;;;;;;5041113;28;19991;-64
2023/11/12 13:37:45;;;;;;;;;;;17.80;63.60;;;;;;5046491;28;20283;-65
2023/11/12 13:40:14;;;;;;;;;;;17.80;63.60;;;;;;5041585;28;19915;-63
2023/11/12 13:42:42;;;;;;;;;;;17.80;63.60;;;;;;5043277;28;20354;-65
2023/11/12 13:45:09;;;;;;;;;;;17.80;63.60;;;;;;5048068;28;19920;-63
2023/11/12 13:47:35;;;;;;;;;;;17.80;63.60;;;;;;5048949;28;19996;-64
2023/11/12 13:50:00;;;;;;;;;;;17.80;63.60;;;;;;5045072;28;20286;-64
2023/11/12 13:52:27;;;;;;;;;;;17.80;63.70;;;;;;5049741;28;19996;-63
2023/11/12 13:54:53;;;;;;;;;;;17.80;63.80;;;;;;5057715;28;19909;-63
2023/11/12 13:57:19;;;;;;;;;;;17.80;63.80;;;;;;5051748;28;19962;-64
2023/11/12 13:59:46;;;;;;;;;;;17.80;63.90;;;;;;5056305;28;19923;-64
2023/11/12 14:02:11;;;;;;;;;;;17.80;63.90;;;;;;5057248;28;20298;-64
2023/11/12 14:04:38;;;;;;;;;;;17.80;63.80;;;;;;5052799;28;19948;-63
2023/11/12 14:07:05;;;;;;;;;;;17.70;63.80;;;;;;5052795;28;19909;-63
2023/11/12 14:09:33;;;;;;;;;;;17.70;63.80;;;;;;5047231;28;19909;-64
2023/11/12 14:12:06;;;;;;;;;;;17.70;63.80;;;;;;5060879;28;19912;-64
2023/11/12 14:14:34;;;;;;;;;;;17.70;63.70;;;;;;5052715;28;19912;-64